createdAt,value
2023-05-24T00:01:56.948Z,100.00
2023-05-24T00:04:25.399Z,100.00
2023-05-24T00:06:54.849Z,100.00
2023-05-24T00:09:21.690Z,100.00
2023-05-24T00:11:48.201Z,100.00
2023-05-24T00:14:14.982Z,100.00
2023-05-24T00:16:41.630Z,100.00
2023-05-24T00:19:08.160Z,100.00
2023-05-24T00:21:36.732Z,100.00
2023-05-24T00:24:03.342Z,100.00
2023-05-24T00:26:29.855Z,100.00
2023-05-24T00:28:56.670Z,100.00
2023-05-24T00:31:23.284Z,100.00
2023-05-24T00:33:49.816Z,100.00
2023-05-24T00:36:16.423Z,100.00
2023-05-24T00:38:42.944Z,100.00
2023-05-24T00:41:09.542Z,100.00
2023-05-24T00:43:37.090Z,100.00
2023-05-24T00:46:30.196Z,100.00
2023-05-24T00:48:56.754Z,100.00
2023-05-24T00:51:23.290Z,100.00
2023-05-24T00:53:49.900Z,100.00
2023-05-24T00:56:17.123Z,100.00
2023-05-24T00:58:43.761Z,100.00
2023-05-24T01:01:10.346Z,100.00
2023-05-24T01:03:36.982Z,100.00
2023-05-24T01:06:04.756Z,100.00
2023-05-24T01:08:38.951Z,100.00
2023-05-24T01:11:21.405Z,100.00
2023-05-24T01:14:21.300Z,100.00
2023-05-24T01:16:56.461Z,100.00
2023-05-24T01:19:49.336Z,100.00
2023-05-24T01:22:43.948Z,100.00
2023-05-24T01:25:14.569Z,100.00
2023-05-24T01:27:41.093Z,100.00
2023-05-24T01:30:08.068Z,100.00
2023-05-24T01:32:34.853Z,100.00
2023-05-24T01:35:01.424Z,100.00
2023-05-24T01:37:27.955Z,100.00
2023-05-24T01:39:54.563Z,100.00
2023-05-24T01:42:25.143Z,100.00
2023-05-24T01:44:56.326Z,100.00
2023-05-24T01:47:30.627Z,100.00
2023-05-24T01:50:07.308Z,100.00
2023-05-24T01:52:34.213Z,100.00
2023-05-24T01:55:00.786Z,100.00
2023-05-24T01:57:27.323Z,100.00
2023-05-24T01:59:54.312Z,100.00
2023-05-24T02:02:20.963Z,100.00
2023-05-24T02:04:47.508Z,100.00
2023-05-24T02:07:14.054Z,100.00
2023-05-24T02:09:40.588Z,100.00
2023-05-24T02:12:07.710Z,100.00
2023-05-24T02:14:34.220Z,100.00
2023-05-24T02:17:00.893Z,100.00
2023-05-24T02:19:27.564Z,100.00
2023-05-24T02:21:54.545Z,100.00
2023-05-24T02:24:21.073Z,100.00
2023-05-24T02:26:47.627Z,100.00
2023-05-24T02:29:14.701Z,100.00
2023-05-24T02:31:41.258Z,100.00
2023-05-24T02:34:07.914Z,100.00
2023-05-24T02:36:36.204Z,100.00
2023-05-24T02:39:04.092Z,100.00
2023-05-24T02:41:30.657Z,100.00
2023-05-24T02:43:57.236Z,100.00
2023-05-24T02:46:23.833Z,100.00
2023-05-24T02:48:50.515Z,100.00
2023-05-24T02:51:20.467Z,100.00
2023-05-24T02:53:47.786Z,100.00
2023-05-24T02:56:17.567Z,100.00
2023-05-24T02:58:45.032Z,100.00
2023-05-24T03:01:12.442Z,100.00
2023-05-24T03:03:39.664Z,100.00
2023-05-24T03:06:07.189Z,100.00
2023-05-24T03:08:34.519Z,100.00
2023-05-24T03:11:01.629Z,100.00
2023-05-24T03:13:28.312Z,100.00
2023-05-24T03:15:54.889Z,100.00
2023-05-24T03:18:21.504Z,100.00
2023-05-24T03:20:48.011Z,100.00
2023-05-24T03:23:15.110Z,100.00
2023-05-24T03:25:41.616Z,100.00
2023-05-24T03:28:08.140Z,100.00
2023-05-24T03:30:34.696Z,100.00
2023-05-24T03:33:01.296Z,100.00
2023-05-24T03:35:28.168Z,100.00
2023-05-24T03:37:54.717Z,100.00
2023-05-24T03:40:21.286Z,100.00
2023-05-24T03:42:47.816Z,100.00
2023-05-24T03:45:19.359Z,100.00
2023-05-24T03:47:50.827Z,100.00
2023-05-24T03:50:17.473Z,100.00
2023-05-24T03:52:44.397Z,100.00
2023-05-24T03:55:11.700Z,100.00
2023-05-24T03:57:38.219Z,100.00
2023-05-24T04:00:07.215Z,100.00
2023-05-24T04:02:34.136Z,100.00
2023-05-24T04:05:00.811Z,100.00
2023-05-24T04:07:28.210Z,100.00
2023-05-24T04:09:54.753Z,100.00
2023-05-24T04:12:21.263Z,100.00
2023-05-24T04:14:47.833Z,100.00
2023-05-24T04:17:14.525Z,100.00
2023-05-24T04:19:41.240Z,100.00
2023-05-24T04:22:07.774Z,100.00
2023-05-24T04:24:34.291Z,100.00
2023-05-24T04:27:00.885Z,100.00
2023-05-24T04:29:27.728Z,100.00
2023-05-24T04:31:54.290Z,100.00
2023-05-24T04:34:22.389Z,100.00
2023-05-24T04:36:50.564Z,100.00
2023-05-24T04:39:18.838Z,100.00
2023-05-24T04:41:45.600Z,100.00
2023-05-24T04:44:12.112Z,100.00
2023-05-24T04:46:38.682Z,100.00
2023-05-24T04:49:05.698Z,100.00
2023-05-24T04:51:32.863Z,100.00
2023-05-24T04:54:00.398Z,100.00
2023-05-24T04:56:27.014Z,100.00
2023-05-24T04:58:53.534Z,100.00
2023-05-24T05:01:20.374Z,100.00
2023-05-24T05:03:47.324Z,100.00
2023-05-24T05:06:14.119Z,100.00
2023-05-24T05:08:40.649Z,100.00
2023-05-24T05:11:07.414Z,100.00
2023-05-24T05:13:34.180Z,100.00
2023-05-24T05:16:00.713Z,100.00
2023-05-24T05:18:27.255Z,100.00
2023-05-24T05:20:53.793Z,100.00
2023-05-24T05:23:20.387Z,100.00
2023-05-24T05:25:46.902Z,100.00
2023-05-24T05:28:13.555Z,100.00
2023-05-24T05:30:40.277Z,100.00
2023-05-24T05:33:07.065Z,100.00
2023-05-24T05:35:33.632Z,100.00
2023-05-24T05:38:00.210Z,100.00
2023-05-24T05:40:26.788Z,100.00
2023-05-24T05:42:53.349Z,100.00
2023-05-24T05:45:19.922Z,100.00
2023-05-24T05:47:46.529Z,100.00
2023-05-24T05:50:13.140Z,100.00
2023-05-24T05:52:39.685Z,100.00
2023-05-24T05:55:06.766Z,100.00
2023-05-24T05:57:33.318Z,100.00
2023-05-24T05:59:59.947Z,100.00
2023-05-24T06:02:26.514Z,100.00
2023-05-24T06:04:53.136Z,100.00
2023-05-24T06:07:20.069Z,100.00
2023-05-24T06:09:46.579Z,100.00
2023-05-24T06:12:13.147Z,100.00
2023-05-24T06:14:39.689Z,100.00
2023-05-24T06:17:06.335Z,100.00
2023-05-24T06:19:33.108Z,100.00
2023-05-24T06:21:59.763Z,100.00
2023-05-24T06:24:28.484Z,100.00
2023-05-24T06:26:54.987Z,100.00
2023-05-24T06:29:22.286Z,100.00
2023-05-24T06:31:49.152Z,100.00
2023-05-24T06:34:20.982Z,100.00
2023-05-24T06:36:48.346Z,100.00
2023-05-24T06:39:15.078Z,100.00
2023-05-24T06:41:43.137Z,100.00
2023-05-24T06:44:09.689Z,100.00
2023-05-24T06:46:36.470Z,100.00
2023-05-24T06:49:03.496Z,100.00
2023-05-24T06:51:30.709Z,100.00
2023-05-24T06:53:57.545Z,100.00
2023-05-24T06:56:24.041Z,100.00
2023-05-24T06:58:51.032Z,100.00
2023-05-24T07:01:18.637Z,100.00
2023-05-24T07:03:45.226Z,100.00
2023-05-24T07:06:14.141Z,100.00
2023-05-24T07:08:41.907Z,100.00
2023-05-24T07:11:08.871Z,100.00
2023-05-24T07:13:35.771Z,100.00
2023-05-24T07:16:02.380Z,98.95
2023-05-24T07:18:29.137Z,95.99
2023-05-24T07:20:55.659Z,97.48
2023-05-24T07:23:22.159Z,95.28
2023-05-24T07:25:49.412Z,93.63
2023-05-24T07:28:17.962Z,97.13
2023-05-24T07:30:44.583Z,100.00
2023-05-24T07:33:11.378Z,100.00
2023-05-24T07:35:38.575Z,100.00
2023-05-24T07:38:05.392Z,100.00
2023-05-24T07:40:32.160Z,98.14
2023-05-24T07:42:58.697Z,100.00
2023-05-24T07:45:25.223Z,100.00
2023-05-24T07:47:54.389Z,100.00
2023-05-24T07:50:22.530Z,100.00
2023-05-24T07:52:50.060Z,100.00
2023-05-24T07:55:16.642Z,100.00
2023-05-24T07:57:43.184Z,100.00
2023-05-24T08:00:14.240Z,98.61
2023-05-24T08:02:44.303Z,94.22
2023-05-24T08:05:12.574Z,96.33
2023-05-24T08:07:40.192Z,100.00
2023-05-24T08:10:07.542Z,98.99
2023-05-24T08:12:34.059Z,100.00
2023-05-24T08:15:00.925Z,96.71
2023-05-24T08:17:27.610Z,93.82
2023-05-24T08:19:54.292Z,95.36
2023-05-24T08:22:21.030Z,98.30
2023-05-24T08:24:47.586Z,95.94
2023-05-24T08:27:14.735Z,98.85
2023-05-24T08:29:41.543Z,96.75
2023-05-24T08:32:11.311Z,96.25
2023-05-24T08:34:38.330Z,97.53
2023-05-24T08:37:05.161Z,94.67
2023-05-24T08:39:31.656Z,90.70
2023-05-24T08:42:08.518Z,91.03
2023-05-24T08:44:42.168Z,91.74
2023-05-24T08:47:08.667Z,90.45
2023-05-24T08:49:37.199Z,90.49
2023-05-24T08:52:04.196Z,89.46
2023-05-24T08:54:31.280Z,90.02
2023-05-24T08:56:57.805Z,93.07
2023-05-24T08:59:25.049Z,95.92
2023-05-24T09:01:53.607Z,94.36
2023-05-24T09:04:21.662Z,94.55
2023-05-24T09:06:48.675Z,98.20
2023-05-24T09:09:16.922Z,97.95
2023-05-24T09:11:43.587Z,98.74
2023-05-24T09:14:10.208Z,100.00
2023-05-24T09:16:36.831Z,99.23
2023-05-24T09:19:04.289Z,100.00
2023-05-24T09:21:30.900Z,99.97
2023-05-24T09:23:57.685Z,100.00
2023-05-24T09:26:25.336Z,100.00
2023-05-24T09:28:54.862Z,100.00
2023-05-24T09:31:26.102Z,100.00
2023-05-24T09:33:52.701Z,100.00
2023-05-24T09:36:19.212Z,100.00
2023-05-24T09:38:45.719Z,100.00
2023-05-24T09:41:12.361Z,100.00
2023-05-24T09:43:48.285Z,100.00
2023-05-24T09:46:19.576Z,100.00
2023-05-24T09:48:59.139Z,100.00
2023-05-24T09:51:26.059Z,100.00
2023-05-24T09:53:56.550Z,100.00
2023-05-24T09:56:23.763Z,100.00
2023-05-24T09:58:50.289Z,96.21
2023-05-24T10:01:18.803Z,94.15
2023-05-24T10:03:55.425Z,97.73
2023-05-24T10:06:22.662Z,96.35
2023-05-24T10:08:49.331Z,97.84
2023-05-24T10:11:15.828Z,98.52
2023-05-24T10:13:42.356Z,100.00
2023-05-24T10:16:08.894Z,100.00
2023-05-24T10:18:35.406Z,100.00
2023-05-24T10:21:02.768Z,100.00
2023-05-24T10:23:30.106Z,100.00
2023-05-24T10:26:03.684Z,100.00
2023-05-24T10:28:30.220Z,100.00
2023-05-24T10:31:04.762Z,100.00
2023-05-24T10:33:31.379Z,100.00
2023-05-24T10:35:58.187Z,100.00
2023-05-24T10:38:24.998Z,100.00
2023-05-24T10:40:52.165Z,100.00
2023-05-24T10:43:18.912Z,100.00
2023-05-24T10:45:48.719Z,100.00
2023-05-24T10:48:15.540Z,100.00
2023-05-24T10:50:42.891Z,100.00
2023-05-24T10:53:16.877Z,100.00
2023-05-24T10:55:59.814Z,100.00
2023-05-24T10:58:32.877Z,100.00
2023-05-24T11:00:59.378Z,100.00
2023-05-24T11:03:25.897Z,100.00
2023-05-24T11:05:54.492Z,100.00
2023-05-24T11:08:22.947Z,100.00
2023-05-24T11:10:49.526Z,100.00
2023-05-24T11:13:16.101Z,100.00
2023-05-24T11:15:50.856Z,100.00
2023-05-24T11:18:18.136Z,100.00
2023-05-24T11:20:48.060Z,100.00
2023-05-24T11:23:15.420Z,100.00
2023-05-24T11:25:41.944Z,100.00
2023-05-24T11:28:10.757Z,100.00
2023-05-24T11:30:46.912Z,100.00
2023-05-24T11:33:32.097Z,100.00
2023-05-24T11:35:59.880Z,100.00
2023-05-24T11:38:27.492Z,100.00
2023-05-24T11:40:54.124Z,100.00
2023-05-24T11:43:21.882Z,100.00
2023-05-24T11:45:49.469Z,100.00
2023-05-24T11:48:16.236Z,100.00
2023-05-24T11:53:13.802Z,100.00
2023-05-24T11:55:41.348Z,100.00
2023-05-24T11:58:14.628Z,100.00
2023-05-24T12:00:43.105Z,100.00
2023-05-24T12:03:10.423Z,100.00
2023-05-24T12:05:37.751Z,100.00
2023-05-24T12:08:09.324Z,100.00
2023-05-24T12:10:38.045Z,100.00
2023-05-24T12:13:04.864Z,100.00
2023-05-24T12:15:31.576Z,100.00
2023-05-24T12:17:58.404Z,100.00
2023-05-24T12:20:25.063Z,100.00
2023-05-24T12:22:52.662Z,100.00
2023-05-24T12:25:21.285Z,100.00
2023-05-24T12:27:54.332Z,100.00
2023-05-24T12:30:25.326Z,100.00
2023-05-24T12:32:53.829Z,100.00
2023-05-24T12:35:21.132Z,100.00
2023-05-24T12:37:48.788Z,100.00
2023-05-24T12:40:17.780Z,100.00
2023-05-24T12:42:45.683Z,100.00
2023-05-24T12:45:12.795Z,100.00
2023-05-24T12:47:39.393Z,100.00
2023-05-24T12:50:06.105Z,100.00
2023-05-24T12:52:32.624Z,100.00
2023-05-24T12:54:59.184Z,100.00
2023-05-24T12:57:25.722Z,100.00
2023-05-24T12:59:52.257Z,100.00
2023-05-24T13:02:19.947Z,100.00
2023-05-24T13:04:46.602Z,100.00
2023-05-24T13:07:13.149Z,100.00
2023-05-24T13:09:39.663Z,100.00
2023-05-24T13:12:06.771Z,100.00
2023-05-24T13:14:36.550Z,100.00
2023-05-24T13:17:03.195Z,100.00
2023-05-24T13:19:29.789Z,100.00
2023-05-24T13:21:56.317Z,100.00
2023-05-24T13:24:23.286Z,100.00
2023-05-24T13:26:52.208Z,100.00
2023-05-24T13:29:34.228Z,100.00
2023-05-24T13:32:06.312Z,100.00
2023-05-24T13:34:33.265Z,100.00
2023-05-24T13:37:00.227Z,100.00
2023-05-24T13:39:27.870Z,100.00
2023-05-24T13:41:54.454Z,100.00
2023-05-24T13:44:21.473Z,100.00
2023-05-24T13:46:48.043Z,100.00
2023-05-24T13:49:15.938Z,100.00
2023-05-24T13:51:42.479Z,100.00
2023-05-24T13:54:09.084Z,100.00
2023-05-24T13:56:35.901Z,100.00
2023-05-24T13:59:03.357Z,100.00
2023-05-24T14:01:30.538Z,100.00
2023-05-24T14:03:57.395Z,100.00
2023-05-24T14:06:23.947Z,100.00
2023-05-24T14:08:50.642Z,100.00
2023-05-24T14:11:17.240Z,100.00
2023-05-24T14:14:39.447Z,100.00
2023-05-24T14:16:30.477Z,100.00
2023-05-24T14:18:57.433Z,100.00
2023-05-24T14:21:25.817Z,100.00
2023-05-24T14:23:52.353Z,100.00
2023-05-24T14:26:18.983Z,100.00
2023-05-24T14:28:45.500Z,100.00
2023-05-24T14:31:12.034Z,100.00
2023-05-24T14:33:38.630Z,100.00
2023-05-24T14:36:05.320Z,100.00
2023-05-24T14:38:32.029Z,100.00
2023-05-24T14:40:59.646Z,100.00
2023-05-24T14:43:26.226Z,100.00
2023-05-24T14:45:52.783Z,100.00
2023-05-24T14:48:19.414Z,100.00
2023-05-24T14:50:46.003Z,100.00
2023-05-24T14:53:12.866Z,100.00
2023-05-24T14:55:41.802Z,100.00
2023-05-24T14:58:12.002Z,100.00
2023-05-24T15:00:38.991Z,100.00
2023-05-24T15:03:06.181Z,100.00
2023-05-24T15:05:33.122Z,100.00
2023-05-24T15:07:59.668Z,100.00
2023-05-24T15:10:26.204Z,100.00
2023-05-24T15:12:52.730Z,100.00
2023-05-24T15:15:20.175Z,100.00
2023-05-24T15:17:47.252Z,100.00
2023-05-24T15:20:13.834Z,100.00
2023-05-24T15:22:40.464Z,100.00
2023-05-24T15:25:07.678Z,100.00
2023-05-24T15:27:34.257Z,100.00
2023-05-24T15:30:00.820Z,100.00
2023-05-24T15:32:27.359Z,100.00
2023-05-24T15:34:53.923Z,100.00
2023-05-24T15:37:22.341Z,100.00
2023-05-24T15:39:49.640Z,100.00
2023-05-24T15:42:16.365Z,100.00
2023-05-24T15:44:42.901Z,100.00
2023-05-24T15:47:09.565Z,100.00
2023-05-24T15:49:36.114Z,100.00
2023-05-24T15:52:04.759Z,100.00
2023-05-24T15:54:31.990Z,100.00
2023-05-24T15:57:00.494Z,100.00
2023-05-24T15:59:27.338Z,97.86
2023-05-24T16:01:55.013Z,95.82
2023-05-24T16:04:21.633Z,94.54
2023-05-24T16:06:48.191Z,98.51
2023-05-24T16:09:14.729Z,100.00
2023-05-24T16:11:41.479Z,100.00
2023-05-24T16:14:08.487Z,97.12
2023-05-24T16:16:35.088Z,100.00
2023-05-24T16:19:01.596Z,100.00
2023-05-24T16:21:28.847Z,100.00
2023-05-24T16:23:55.581Z,100.00
2023-05-24T16:26:22.155Z,100.00
2023-05-24T16:28:49.425Z,100.00
2023-05-24T16:31:17.190Z,100.00
2023-05-24T16:33:44.285Z,100.00
2023-05-24T16:36:10.841Z,100.00
2023-05-24T16:38:37.939Z,100.00
2023-05-24T16:41:06.039Z,100.00
2023-05-24T16:43:32.949Z,100.00
2023-05-24T16:46:00.382Z,100.00
2023-05-24T16:48:28.767Z,100.00
2023-05-24T16:50:56.688Z,100.00
2023-05-24T16:53:26.756Z,100.00
2023-05-24T16:55:54.216Z,100.00
2023-05-24T16:58:21.392Z,100.00
2023-05-24T17:00:47.975Z,100.00
2023-05-24T17:03:14.646Z,100.00
2023-05-24T17:05:41.184Z,100.00
2023-05-24T17:08:08.366Z,100.00
2023-05-24T17:10:34.941Z,100.00
2023-05-24T17:13:01.460Z,100.00
2023-05-24T17:15:27.980Z,100.00
2023-05-24T17:17:55.559Z,100.00
2023-05-24T17:20:22.117Z,100.00
2023-05-24T17:22:49.489Z,100.00
2023-05-24T17:25:16.162Z,100.00
2023-05-24T17:27:42.729Z,100.00
2023-05-24T17:30:09.557Z,100.00
2023-05-24T17:32:36.247Z,100.00
2023-05-24T17:35:02.819Z,100.00
2023-05-24T17:37:29.318Z,100.00
2023-05-24T17:39:55.840Z,100.00
2023-05-24T17:42:22.416Z,100.00
2023-05-24T17:44:48.943Z,100.00
2023-05-24T17:47:15.748Z,100.00
2023-05-24T17:49:42.250Z,100.00
2023-05-24T17:52:08.761Z,100.00
2023-05-24T17:54:35.351Z,100.00
2023-05-24T17:57:02.921Z,100.00
2023-05-24T17:59:29.481Z,100.00
2023-05-24T18:01:56.112Z,100.00
2023-05-24T18:04:22.658Z,100.00
2023-05-24T18:06:49.226Z,100.00
2023-05-24T18:09:16.923Z,100.00
2023-05-24T18:11:43.468Z,100.00
2023-05-24T18:14:10.040Z,100.00
2023-05-24T18:16:36.812Z,100.00
2023-05-24T18:19:03.349Z,100.00
2023-05-24T18:21:29.864Z,100.00
2023-05-24T18:23:56.363Z,100.00
2023-05-24T18:26:22.933Z,100.00
2023-05-24T18:28:49.461Z,100.00
2023-05-24T18:31:16.009Z,100.00
2023-05-24T18:33:42.625Z,100.00
2023-05-24T18:36:09.242Z,100.00
2023-05-24T18:38:36.400Z,100.00
2023-05-24T18:41:05.709Z,100.00
2023-05-24T18:43:32.945Z,100.00
2023-05-24T18:45:59.484Z,100.00
2023-05-24T18:48:25.993Z,100.00
2023-05-24T18:50:53.800Z,100.00
2023-05-24T18:53:21.644Z,100.00
2023-05-24T18:55:48.173Z,100.00
2023-05-24T18:58:14.699Z,100.00
2023-05-24T19:00:41.327Z,100.00
2023-05-24T19:03:10.873Z,100.00
2023-05-24T19:05:38.997Z,100.00
2023-05-24T19:08:07.488Z,100.00
2023-05-24T19:10:34.038Z,100.00
2023-05-24T19:13:03.809Z,100.00
2023-05-24T19:15:30.366Z,100.00
2023-05-24T19:17:57.917Z,100.00
2023-05-24T19:20:24.629Z,100.00
2023-05-24T19:22:51.300Z,100.00
2023-05-24T19:25:17.827Z,100.00
2023-05-24T19:27:57.765Z,100.00
2023-05-24T19:30:25.545Z,100.00
2023-05-24T19:32:52.181Z,100.00
2023-05-24T19:35:18.731Z,100.00
2023-05-24T19:37:45.265Z,100.00
2023-05-24T19:40:11.870Z,100.00
2023-05-24T19:42:38.409Z,100.00
2023-05-24T19:45:05.479Z,100.00
2023-05-24T19:47:32.367Z,100.00
2023-05-24T19:49:58.944Z,100.00
2023-05-24T19:52:25.521Z,100.00
2023-05-24T19:54:52.064Z,100.00
2023-05-24T19:57:18.572Z,100.00
2023-05-24T19:59:45.069Z,100.00
2023-05-24T20:02:11.578Z,100.00
2023-05-24T20:04:41.894Z,100.00
2023-05-24T20:07:08.823Z,100.00
2023-05-24T20:09:35.358Z,100.00
2023-05-24T20:12:02.599Z,100.00
2023-05-24T20:14:31.440Z,100.00
2023-05-24T20:17:01.477Z,100.00
2023-05-24T20:19:28.086Z,100.00
2023-05-24T20:21:54.682Z,100.00
2023-05-24T20:24:21.224Z,100.00
2023-05-24T20:26:48.082Z,100.00
2023-05-24T20:29:15.877Z,100.00
2023-05-24T20:31:43.445Z,100.00
2023-05-24T20:34:10.366Z,100.00
2023-05-24T20:36:36.896Z,100.00
2023-05-24T20:39:04.120Z,100.00
2023-05-24T20:41:30.743Z,100.00
2023-05-24T20:43:57.273Z,100.00
2023-05-24T20:46:23.958Z,100.00
2023-05-24T20:48:51.423Z,100.00
2023-05-24T20:51:19.161Z,100.00
2023-05-24T20:53:45.968Z,100.00
2023-05-24T20:56:12.529Z,100.00
2023-05-24T20:58:41.195Z,100.00
2023-05-24T21:01:08.645Z,100.00
2023-05-24T21:03:35.604Z,100.00
2023-05-24T21:06:02.338Z,100.00
2023-05-24T21:08:28.866Z,100.00
2023-05-24T21:10:55.715Z,100.00
2023-05-24T21:13:22.529Z,100.00
2023-05-24T21:15:50.515Z,100.00
2023-05-24T21:18:17.186Z,100.00
2023-05-24T21:20:43.858Z,100.00
2023-05-24T21:23:10.891Z,100.00
2023-05-24T21:25:37.415Z,100.00
2023-05-24T21:28:03.927Z,100.00
2023-05-24T21:30:30.647Z,100.00
2023-05-24T21:32:57.179Z,100.00
2023-05-24T21:35:23.740Z,100.00
2023-05-24T21:37:50.260Z,100.00
2023-05-24T21:40:16.806Z,100.00
2023-05-24T21:42:44.288Z,100.00
2023-05-24T21:45:11.112Z,100.00
2023-05-24T21:47:37.752Z,100.00
2023-05-24T21:50:05.314Z,100.00
2023-05-24T21:52:31.830Z,100.00
2023-05-24T21:54:58.345Z,100.00
2023-05-24T21:57:26.404Z,100.00
2023-05-24T21:59:53.167Z,100.00
2023-05-24T22:02:20.070Z,100.00
2023-05-24T22:04:46.613Z,100.00
2023-05-24T22:07:13.891Z,100.00
2023-05-24T22:09:40.423Z,100.00
2023-05-24T22:12:07.279Z,100.00
2023-05-24T22:14:33.799Z,100.00
2023-05-24T22:17:00.331Z,100.00
2023-05-24T22:19:40.083Z,100.00
2023-05-24T22:22:08.202Z,100.00
2023-05-24T22:24:34.819Z,100.00
2023-05-24T22:27:02.454Z,100.00
2023-05-24T22:29:29.044Z,100.00
2023-05-24T22:31:55.706Z,100.00
2023-05-24T22:34:28.767Z,100.00
2023-05-24T22:36:55.574Z,100.00
2023-05-24T22:39:22.161Z,100.00
2023-05-24T22:41:48.766Z,100.00
2023-05-24T22:44:15.722Z,100.00
2023-05-24T22:46:42.304Z,100.00
2023-05-24T22:49:12.987Z,100.00
2023-05-24T22:51:44.366Z,100.00
2023-05-24T22:54:11.590Z,100.00
2023-05-24T22:56:38.507Z,100.00
2023-05-24T22:59:05.424Z,100.00
2023-05-24T23:01:32.369Z,100.00
2023-05-24T23:04:11.540Z,100.00
2023-05-24T23:06:45.994Z,100.00
2023-05-24T23:09:15.325Z,100.00
2023-05-24T23:11:42.804Z,100.00
2023-05-24T23:14:11.729Z,100.00
2023-05-24T23:16:45.212Z,100.00
2023-05-24T23:19:13.463Z,100.00
2023-05-24T23:21:42.124Z,100.00
2023-05-24T23:24:14.195Z,100.00
2023-05-24T23:26:41.763Z,100.00
2023-05-24T23:29:08.670Z,100.00
2023-05-24T23:31:35.761Z,100.00
2023-05-24T23:34:02.326Z,100.00
2023-05-24T23:36:28.859Z,100.00
2023-05-24T23:38:55.394Z,100.00
2023-05-24T23:41:21.946Z,100.00
2023-05-24T23:43:48.552Z,100.00
2023-05-24T23:46:16.969Z,100.00
2023-05-24T23:48:43.663Z,100.00
2023-05-24T23:51:10.537Z,100.00
2023-05-24T23:53:37.058Z,100.00
2023-05-24T23:56:03.660Z,100.00
2023-05-24T23:58:30.173Z,100.00
